KACT

Waco Regional Airport

Waco, Texas, USA
METAR KACT 210951Z AUTO 14006KT 10SM OVC014 25/23 A2989 RMK AO2 SLP114 T02500228 $
Observed Flight Rules
Jun-21 @ 09:51 UTC (12 minutes ago) Marginal Visual Flight Rules
Wind Visibility Clouds
140° at 6 knots 10 miles
  • Overcast at 1,400' AGL
Temperatures Readings
Current 25°C / 77°F
Dewpoint 23°C / 73°F
Humidity 89%
Altimeter 29.89" Hg
Pressure 1011.4 hPa
Elevation 151
METAR KACT 210951Z AUTO 14006KT 10SM OVC014 25/23 A2989 RMK AO2 SLP114 T02500228 $
Observed Flight Rules
Jun-21 @ 09:51 UTC
(12 minutes ago)
MVFR
Wind Visibility
140° at 6 knots 10 miles
Clouds
  • Overcast at 1,400' AGL
Temperature Dewpoint
25°C / 77°F 23°C / 73°F
Humidity Altimeter Pressure
89% 29.89" Hg 1011.4 hPa